createdAt,value
2018-05-03T00:15:24.558Z,84.10
2018-05-03T00:18:14.845Z,83.90
2018-05-03T00:23:43.003Z,83.00
2018-05-03T00:26:30.660Z,83.50
2018-05-03T00:32:05.455Z,83.90
2018-05-03T00:34:55.999Z,84.30
2018-05-03T00:42:55.118Z,83.20
2018-05-03T00:45:44.828Z,83.60
2018-05-03T00:48:47.380Z,82.60
2018-05-03T00:51:35.617Z,82.30
2018-05-03T00:54:41.076Z,82.10
2018-05-03T01:00:23.348Z,82.90
2018-05-03T01:11:58.616Z,82.80
2018-05-03T01:23:17.480Z,82.90
2018-05-03T01:25:56.971Z,83.40
2018-05-03T01:28:57.924Z,85.00
2018-05-03T01:32:01.572Z,86.70
2018-05-03T01:37:26.136Z,85.60
2018-05-03T01:40:04.238Z,85.60
2018-05-03T01:43:00.144Z,84.80
2018-05-03T01:45:46.974Z,86.40
2018-05-03T01:51:30.421Z,84.60
2018-05-03T01:54:15.603Z,86.70
2018-05-03T01:56:58.582Z,84.90
2018-05-03T01:59:44.164Z,85.00
2018-05-03T02:02:28.234Z,87.20
2018-05-03T02:05:09.201Z,86.60
2018-05-03T02:07:48.651Z,86.30
2018-05-03T02:10:25.613Z,87.50
2018-05-03T02:15:54.766Z,88.20
2018-05-03T02:18:41.299Z,86.90
2018-05-03T02:27:49.321Z,87.30
2018-05-03T02:33:13.717Z,88.30
2018-05-03T02:36:00.517Z,88.60
2018-05-03T02:38:41.940Z,88.50
2018-05-03T02:41:28.740Z,87.90
2018-05-03T02:44:29.174Z,87.10
2018-05-03T02:50:25.030Z,83.50
2018-05-03T02:53:02.628Z,83.90
2018-05-03T03:29:32.045Z,80.80
2018-05-03T03:39:08.388Z,79.10
2018-05-03T03:41:56.082Z,80.00
2018-05-03T03:44:50.004Z,79.90
2018-05-03T03:47:24.330Z,79.90
2018-05-03T03:50:19.636Z,79.90
2018-05-03T03:52:56.311Z,79.50
2018-05-03T03:55:34.658Z,79.50
2018-05-03T03:58:15.114Z,79.40
2018-05-03T04:00:52.066Z,78.90
2018-05-03T04:12:20.709Z,79.20
2018-05-03T04:14:56.455Z,79.40
2018-05-03T04:21:10.487Z,80.40
2018-05-03T04:24:26.635Z,80.30
2018-05-03T04:35:55.471Z,80.10
2018-05-03T04:38:29.493Z,79.60
2018-05-03T04:41:02.094Z,80.10
2018-05-03T04:43:38.034Z,80.10
2018-05-03T04:46:26.578Z,80.30
2018-05-03T04:48:57.756Z,80.20
2018-05-03T04:51:45.567Z,80.30
2018-05-03T05:08:15.012Z,79.80
2018-05-03T05:10:50.506Z,79.70
2018-05-03T05:13:31.209Z,79.50
2018-05-03T05:16:15.692Z,79.10
2018-05-03T05:18:51.283Z,79.40
2018-05-03T05:21:41.001Z,78.60
2018-05-03T05:24:26.831Z,79.40
2018-05-03T05:27:11.981Z,79.10
2018-05-03T05:30:01.193Z,79.20
2018-05-03T05:32:47.349Z,80.20
2018-05-03T05:41:09.730Z,79.70
2018-05-03T05:46:45.198Z,79.60
2018-05-03T05:49:26.105Z,79.90
2018-05-03T05:52:27.772Z,80.10
2018-05-03T05:55:19.379Z,79.70
2018-05-03T05:57:56.327Z,80.10
2018-05-03T06:00:38.084Z,79.60
2018-05-03T06:03:19.365Z,80.00
2018-05-03T06:11:43.521Z,79.80
2018-05-03T06:17:19.107Z,79.60
2018-05-03T06:26:13.453Z,80.80
2018-05-03T06:29:10.172Z,80.90
2018-05-03T06:37:29.683Z,82.10
2018-05-03T11:00:43.889Z,75.70
2018-05-03T11:03:14.197Z,74.90
2018-05-03T11:05:43.497Z,76.20
2018-05-03T11:08:12.810Z,75.30
2018-05-03T11:10:42.100Z,73.70
2018-05-03T11:13:12.183Z,72.70
2018-05-03T11:15:42.250Z,72.70
2018-05-03T11:18:11.561Z,73.80
2018-05-03T11:20:40.850Z,72.70
2018-05-03T11:23:10.163Z,74.30
2018-05-03T11:25:40.285Z,72.00
2018-05-03T11:28:09.587Z,72.00
2018-05-03T11:30:38.887Z,71.80
2018-05-03T11:33:08.190Z,70.70
2018-05-03T11:35:37.533Z,71.40
2018-05-03T11:38:06.831Z,70.50
2018-05-03T11:40:36.123Z,70.70
2018-05-03T11:43:06.133Z,69.70
2018-05-03T11:45:35.425Z,69.60
2018-05-03T11:48:04.725Z,69.20
2018-05-03T11:50:34.003Z,70.50
2018-05-03T11:53:03.304Z,69.00
2018-05-03T11:55:32.591Z,68.90
2018-05-03T11:58:01.969Z,67.80
2018-05-03T12:00:53.830Z,68.10
2018-05-03T12:28:16.191Z,69.50
2018-05-03T12:30:55.643Z,69.30
2018-05-03T12:33:34.591Z,70.00
2018-05-03T12:36:16.825Z,69.60
2018-05-03T12:38:50.568Z,69.30
2018-05-03T12:41:36.578Z,69.40
2018-05-03T12:44:17.005Z,69.70
2018-05-03T12:46:59.038Z,68.70
2018-05-03T12:55:21.296Z,70.20
2018-05-03T12:57:57.425Z,69.60
2018-05-03T13:09:11.918Z,67.90
2018-05-03T13:12:14.918Z,69.20
2018-05-03T13:15:00.661Z,68.70
2018-05-03T13:17:52.447Z,68.00
2018-05-03T13:20:27.581Z,69.00
2018-05-03T13:23:01.026Z,69.70
2018-05-03T13:25:36.997Z,70.00
2018-05-03T13:28:17.439Z,70.80
2018-05-03T13:30:51.755Z,70.50
2018-05-03T13:33:28.655Z,68.70
2018-05-03T13:38:43.938Z,68.30
2018-05-03T13:41:13.383Z,68.30
2018-05-03T13:43:42.708Z,67.90
2018-05-03T13:46:12.079Z,69.10
2018-05-03T13:48:42.703Z,69.10
2018-05-03T13:51:12.553Z,70.00
2018-05-03T13:53:42.686Z,69.90
2018-05-03T13:56:14.860Z,70.20
2018-05-03T13:58:44.952Z,70.80
2018-05-03T14:01:27.712Z,69.20
2018-05-03T14:06:56.953Z,69.40
2018-05-03T14:09:43.318Z,69.40
2018-05-03T14:12:25.990Z,69.70
2018-05-03T14:15:08.240Z,69.80
2018-05-03T14:17:46.429Z,70.60
2018-05-03T14:23:15.064Z,70.30
2018-05-03T14:25:54.168Z,70.20
2018-05-03T14:28:35.772Z,70.10
2018-05-03T14:31:24.414Z,70.10
2018-05-03T14:34:02.939Z,67.60
2018-05-03T14:36:45.122Z,68.60
2018-05-03T14:39:28.774Z,69.30
2018-05-03T14:42:19.835Z,69.40
2018-05-03T14:44:55.690Z,68.60
2018-05-03T14:47:36.300Z,69.50
2018-05-03T14:50:15.691Z,69.80
2018-05-03T14:52:53.728Z,68.80
2018-05-03T14:55:32.619Z,69.60
2018-05-03T15:00:57.847Z,69.00
2018-05-03T15:03:54.123Z,69.00
2018-05-03T15:09:22.336Z,68.10
2018-05-03T15:11:56.003Z,67.00
2018-05-03T15:14:26.000Z,68.20
2018-05-03T15:17:06.631Z,66.90
2018-05-03T15:19:37.734Z,65.90
2018-05-03T15:22:10.295Z,66.00
2018-05-03T15:24:39.876Z,66.50
2018-05-03T15:55:22.819Z,66.60
2018-05-03T15:58:00.090Z,66.80
2018-05-03T16:00:37.160Z,66.80
2018-05-03T16:03:14.312Z,66.50
2018-05-03T16:05:47.257Z,67.10
2018-05-03T16:08:21.723Z,67.50
2018-05-03T16:10:51.004Z,67.60
2018-05-03T16:13:20.307Z,65.50
2018-05-03T16:15:49.633Z,65.30
2018-05-03T16:18:21.545Z,65.30
2018-05-03T16:20:52.403Z,65.40
2018-05-03T16:23:23.780Z,66.10
2018-05-03T16:25:53.111Z,65.80
2018-05-03T16:28:22.451Z,65.90
2018-05-03T16:30:51.977Z,65.70
2018-05-03T16:33:21.390Z,65.50
2018-05-03T16:35:50.720Z,65.30
2018-05-03T16:38:20.076Z,66.20
2018-05-03T16:40:49.400Z,65.40
2018-05-03T16:43:18.684Z,65.30
2018-05-03T16:45:48.213Z,65.40
2018-05-03T16:48:17.604Z,66.40
2018-05-03T16:50:47.677Z,65.70
2018-05-03T16:53:17.027Z,65.70
2018-05-03T16:55:47.233Z,66.30
2018-05-03T16:58:17.620Z,66.70
2018-05-03T17:00:46.934Z,66.70
2018-05-03T17:03:16.727Z,66.60
2018-05-03T17:05:46.033Z,66.80
2018-05-03T17:08:15.323Z,66.30
2018-05-03T17:10:44.671Z,66.80
2018-05-03T17:13:14.168Z,66.80
2018-05-03T17:15:45.038Z,66.80
2018-05-03T17:18:14.708Z,66.70
2018-05-03T17:20:44.032Z,67.30
2018-05-03T17:23:13.332Z,67.40
2018-05-03T17:25:42.641Z,67.60
2018-05-03T17:28:11.958Z,67.90
2018-05-03T17:30:41.377Z,67.80
2018-05-03T17:33:10.678Z,67.70
2018-05-03T17:35:39.941Z,67.90
2018-05-03T17:38:09.250Z,68.60
2018-05-03T17:40:39.456Z,67.80
2018-05-03T17:43:08.791Z,67.80
2018-05-03T17:45:38.286Z,68.40
2018-05-03T17:48:07.635Z,69.40
2018-05-03T17:50:37.019Z,68.60
2018-05-03T17:53:06.341Z,68.50
2018-05-03T17:55:35.641Z,67.90
2018-05-03T17:58:04.950Z,68.20
2018-05-03T18:00:34.284Z,68.20
2018-05-03T18:03:04.674Z,67.90
2018-05-03T18:05:34.795Z,67.90
2018-05-03T18:08:04.121Z,68.40
2018-05-03T18:10:33.459Z,68.70
2018-05-03T18:13:03.469Z,68.70
2018-05-03T18:15:32.778Z,68.60
2018-05-03T18:18:02.095Z,69.00
2018-05-03T18:20:31.399Z,69.70
2018-05-03T18:23:00.732Z,69.30
2018-05-03T18:25:30.085Z,70.00
2018-05-03T18:27:59.551Z,69.60
2018-05-03T18:30:30.801Z,69.80
2018-05-03T18:33:00.174Z,69.80
2018-05-03T18:35:31.186Z,70.20
2018-05-03T18:38:03.307Z,71.00
2018-05-03T18:40:35.210Z,70.50
2018-05-03T18:43:07.642Z,70.70
2018-05-03T18:45:37.033Z,70.40
2018-05-03T18:48:06.565Z,70.60
2018-05-03T18:50:36.686Z,71.00
2018-05-03T18:53:08.127Z,71.50
2018-05-03T18:55:39.728Z,70.80
2018-05-03T18:58:12.801Z,70.90
2018-05-03T19:00:42.224Z,71.40
2018-05-03T19:03:12.594Z,71.20
2018-05-03T19:05:42.733Z,71.10
2018-05-03T19:08:13.520Z,71.60
2018-05-03T19:10:42.868Z,71.60
2018-05-03T19:13:16.159Z,71.70
2018-05-03T19:15:46.311Z,71.70
2018-05-03T19:18:15.666Z,72.30
2018-05-03T19:20:46.107Z,71.70
2018-05-03T19:23:16.863Z,71.70
2018-05-03T19:25:46.152Z,71.70
2018-05-03T19:28:20.075Z,72.70
2018-05-03T19:30:50.317Z,72.40
2018-05-03T19:33:19.929Z,73.10
2018-05-03T19:35:54.820Z,73.00
2018-05-03T19:38:25.746Z,72.30
2018-05-03T19:40:55.023Z,72.20
2018-05-03T19:43:24.321Z,72.50
2018-05-03T19:45:53.619Z,72.80
2018-05-03T19:48:22.915Z,73.10
2018-05-03T19:50:52.243Z,73.30
2018-05-03T19:53:21.550Z,73.20
2018-05-03T19:55:50.850Z,73.50
2018-05-03T19:58:20.149Z,74.60
2018-05-03T20:00:50.234Z,73.70
2018-05-03T20:03:19.568Z,73.70
2018-05-03T20:05:48.881Z,74.30
2018-05-03T20:08:18.260Z,74.30
2018-05-03T20:10:47.485Z,74.10
2018-05-03T20:13:17.553Z,74.40
2018-05-03T20:15:46.884Z,74.30
2018-05-03T20:18:16.963Z,74.60
2018-05-03T20:20:46.341Z,74.60
2018-05-03T20:23:15.624Z,74.70
2018-05-03T20:25:44.948Z,74.70
2018-05-03T20:28:14.232Z,74.80
2018-05-03T20:30:44.401Z,75.40
2018-05-03T20:33:13.707Z,75.00
2018-05-03T20:35:43.078Z,74.90
2018-05-03T20:38:12.353Z,74.80
2018-05-03T20:40:42.511Z,74.50
2018-05-03T20:43:11.846Z,74.40
2018-05-03T20:45:41.231Z,74.40
2018-05-03T20:48:10.499Z,74.50
2018-05-03T20:50:40.367Z,74.70
2018-05-03T20:53:09.818Z,74.50
2018-05-03T20:55:39.102Z,74.70
2018-05-03T20:58:09.358Z,75.50
2018-05-03T21:00:38.682Z,75.30
2018-05-03T21:03:08.054Z,75.50
2018-05-03T21:05:38.267Z,75.50
2018-05-03T21:08:07.572Z,75.80
2018-05-03T21:10:37.095Z,76.30
2018-05-03T21:13:06.453Z,76.20
2018-05-03T21:15:35.777Z,76.20
2018-05-03T21:18:05.236Z,76.30
2018-05-03T21:20:34.635Z,76.60
2018-05-03T21:23:03.934Z,77.00
2018-05-03T21:25:33.230Z,77.00
2018-05-03T21:28:02.577Z,77.10
2018-05-03T21:30:31.889Z,77.00
2018-05-03T21:33:01.186Z,77.20
2018-05-03T21:35:30.512Z,77.20
2018-05-03T21:37:59.927Z,77.90
2018-05-03T21:40:29.206Z,77.90
2018-05-03T21:42:58.515Z,78.00
2018-05-03T21:45:27.815Z,77.80
2018-05-03T21:47:57.130Z,78.10
2018-05-03T21:50:26.414Z,77.70
2018-05-03T21:52:55.732Z,77.70
2018-05-03T21:55:25.030Z,77.80
2018-05-03T21:57:54.323Z,78.10
2018-05-03T22:00:23.629Z,78.20
2018-05-03T22:02:52.921Z,78.20
2018-05-03T22:05:22.964Z,78.70
2018-05-03T22:07:52.255Z,78.60
2018-05-03T22:10:21.534Z,78.40
2018-05-03T22:12:50.834Z,79.10
2018-05-03T22:15:20.156Z,79.30
2018-05-03T22:17:49.438Z,79.30
2018-05-03T22:20:18.735Z,79.80
2018-05-03T22:22:48.031Z,80.00
2018-05-03T22:25:17.306Z,80.10
2018-05-03T22:27:46.628Z,80.50
2018-05-03T22:30:15.923Z,80.50
2018-05-03T22:32:45.221Z,80.40
2018-05-03T22:35:14.508Z,80.50
2018-05-03T22:37:43.822Z,80.60
2018-05-03T22:40:14.091Z,80.50
2018-05-03T22:42:43.388Z,80.90
2018-05-03T22:45:12.676Z,81.20
2018-05-03T22:47:41.969Z,80.90
2018-05-03T22:50:11.253Z,80.90
2018-05-03T22:52:41.325Z,80.70
2018-05-03T22:55:11.391Z,80.90
2018-05-03T22:57:40.666Z,80.90
2018-05-03T23:00:09.972Z,80.40
2018-05-03T23:02:38.955Z,80.60
2018-05-03T23:05:08.255Z,80.50
2018-05-03T23:07:37.702Z,80.80
2018-05-03T23:10:07.001Z,80.20
2018-05-03T23:12:36.312Z,80.30
2018-05-03T23:15:05.610Z,80.60
2018-05-03T23:17:34.906Z,80.80
2018-05-03T23:20:04.206Z,80.70
2018-05-03T23:22:33.539Z,80.30
2018-05-03T23:25:03.599Z,80.90
2018-05-03T23:27:32.898Z,80.90
2018-05-03T23:30:02.180Z,80.80
2018-05-03T23:32:31.501Z,81.10
2018-05-03T23:35:00.813Z,80.80
2018-05-03T23:37:30.125Z,81.00
2018-05-03T23:39:59.410Z,81.60
2018-05-03T23:42:28.705Z,81.70
2018-05-03T23:44:58.015Z,81.90
2018-05-03T23:47:27.310Z,82.00
2018-05-03T23:49:56.620Z,82.50
2018-05-03T23:52:25.896Z,82.50
2018-05-03T23:54:55.181Z,83.00
2018-05-03T23:57:24.483Z,83.10
2018-05-03T23:59:53.801Z,83.30
